createdAt,value
2022-11-05T00:01:38.421Z,22.02
2022-11-05T00:04:32.649Z,19.63
2022-11-05T00:07:29.078Z,20.30
2022-11-05T00:10:05.152Z,19.90
2022-11-05T00:12:56.495Z,20.80
2022-11-05T00:15:48.595Z,20.50
2022-11-05T00:18:22.251Z,20.27
2022-11-05T00:20:55.998Z,23.17
2022-11-05T00:26:20.638Z,20.13
2022-11-05T00:29:00.994Z,18.17
2022-11-05T00:31:35.947Z,20.23
2022-11-05T00:34:11.848Z,19.42
2022-11-05T00:36:45.457Z,21.08
2022-11-05T00:39:19.004Z,21.17
2022-11-05T00:42:15.898Z,20.63
2022-11-05T00:45:01.117Z,20.90
2022-11-05T00:47:53.220Z,19.80
2022-11-05T00:50:27.052Z,20.33
2022-11-05T00:53:01.801Z,20.48
2022-11-05T00:55:38.669Z,20.63
2022-11-05T00:58:14.483Z,18.45
2022-11-05T01:00:51.306Z,19.80
2022-11-05T01:03:28.790Z,19.90
2022-11-05T01:06:05.663Z,18.65
2022-11-05T01:08:43.769Z,20.77
2022-11-05T01:11:33.494Z,19.55
2022-11-05T01:14:10.181Z,20.80
2022-11-05T01:16:46.628Z,20.30
2022-11-05T01:19:26.150Z,19.00
2022-11-05T01:21:59.632Z,20.13
2022-11-05T01:24:33.355Z,20.60
2022-11-05T01:27:06.871Z,21.33
2022-11-05T01:29:40.403Z,19.73
2022-11-05T01:32:13.969Z,20.05
2022-11-05T01:34:49.572Z,20.30
2022-11-05T01:37:23.081Z,18.55
2022-11-05T01:39:57.144Z,19.90
2022-11-05T01:42:33.067Z,18.98
2022-11-05T01:45:14.314Z,19.92
2022-11-05T01:47:59.225Z,19.80
2022-11-05T01:50:44.169Z,18.35
2022-11-05T01:53:23.362Z,19.75
2022-11-05T01:56:00.371Z,21.05
2022-11-05T01:58:38.646Z,20.65
2022-11-05T02:01:13.206Z,20.65
2022-11-05T02:03:48.246Z,19.27
2022-11-05T02:06:23.342Z,19.98
2022-11-05T02:09:02.193Z,20.33
2022-11-05T02:11:36.019Z,20.13
2022-11-05T02:16:48.524Z,19.88
2022-11-05T02:20:03.847Z,19.80
2022-11-05T02:23:04.853Z,18.52
2022-11-05T02:26:18.502Z,19.33
2022-11-05T02:29:23.284Z,20.38
2022-11-05T02:34:47.693Z,18.08
2022-11-05T02:37:34.408Z,20.48
2022-11-05T02:40:16.943Z,19.77
2022-11-05T02:43:00.612Z,20.70
2022-11-05T02:45:47.761Z,18.52
2022-11-05T02:48:27.406Z,21.23
2022-11-05T02:51:07.230Z,20.70
2022-11-05T02:53:47.487Z,20.02
2022-11-05T02:56:25.963Z,20.63
2022-11-05T02:58:59.514Z,20.67
2022-11-05T03:01:33.061Z,19.73
2022-11-05T03:04:10.968Z,19.58
2022-11-05T03:07:00.957Z,20.30
2022-11-05T03:10:07.330Z,19.65
2022-11-05T03:12:48.791Z,19.35
2022-11-05T03:15:32.473Z,20.50
2022-11-05T03:18:13.182Z,19.83
2022-11-05T03:20:51.999Z,19.83
2022-11-05T03:23:30.644Z,21.10
2022-11-05T03:26:11.499Z,20.88
2022-11-05T03:28:50.255Z,20.17
2022-11-05T03:31:26.025Z,21.02
2022-11-05T03:34:01.548Z,18.52
2022-11-05T03:36:41.427Z,20.70
2022-11-05T03:39:19.864Z,19.83
2022-11-05T03:41:55.449Z,19.77
2022-11-05T03:44:34.037Z,20.80
2022-11-05T03:47:10.859Z,19.92
2022-11-05T03:49:52.566Z,20.60
2022-11-05T03:52:31.441Z,20.95
2022-11-05T03:55:05.650Z,20.15
2022-11-05T03:57:43.314Z,21.13
2022-11-05T04:00:17.504Z,21.23
2022-11-05T04:02:51.510Z,20.02
2022-11-05T04:05:25.167Z,21.20
2022-11-05T04:08:19.954Z,19.10
2022-11-05T04:11:10.870Z,19.67
2022-11-05T04:13:44.357Z,20.30
2022-11-05T04:16:35.132Z,19.58
2022-11-05T04:19:08.588Z,20.38
2022-11-05T04:21:59.391Z,21.17
2022-11-05T04:24:34.311Z,20.42
2022-11-05T04:27:11.407Z,20.13
2022-11-05T04:30:02.076Z,21.20
2022-11-05T04:32:35.586Z,20.75
2022-11-05T04:35:09.188Z,21.40
2022-11-05T04:37:42.674Z,20.15
2022-11-05T04:40:17.780Z,21.40
2022-11-05T04:42:51.331Z,21.05
2022-11-05T04:45:25.753Z,21.85
2022-11-05T04:47:59.278Z,20.38
2022-11-05T04:50:33.644Z,22.13
2022-11-05T04:53:07.179Z,21.13
2022-11-05T04:55:42.168Z,22.02
2022-11-05T04:58:15.811Z,21.85
2022-11-05T05:00:51.359Z,21.73
2022-11-05T05:03:24.797Z,22.35
2022-11-05T05:06:03.688Z,23.10
2022-11-05T05:08:37.740Z,21.65
2022-11-05T05:11:15.234Z,21.67
2022-11-05T05:13:49.458Z,22.45
2022-11-05T05:16:24.464Z,21.90
2022-11-05T05:18:57.927Z,21.77
2022-11-05T05:21:39.220Z,23.02
2022-11-05T05:24:14.729Z,22.55
2022-11-05T05:26:51.238Z,23.90
2022-11-05T05:29:24.728Z,21.10
2022-11-05T05:31:58.179Z,22.70
2022-11-05T05:34:31.664Z,21.35
2022-11-05T05:37:05.100Z,21.30
2022-11-05T05:39:38.764Z,20.88
2022-11-05T05:42:13.595Z,21.27
2022-11-05T05:44:47.048Z,22.08
2022-11-05T05:47:20.704Z,22.80
2022-11-05T05:49:54.221Z,22.73
2022-11-05T05:52:27.747Z,20.58
2022-11-05T05:55:01.218Z,22.05
2022-11-05T05:57:36.454Z,23.15
2022-11-05T06:00:11.329Z,22.98
2022-11-05T06:02:47.973Z,22.73
2022-11-05T06:05:21.558Z,23.50
2022-11-05T06:07:58.416Z,21.40
2022-11-05T06:10:32.032Z,21.92
2022-11-05T06:13:06.997Z,22.65
2022-11-05T06:15:40.542Z,21.80
2022-11-05T06:18:14.188Z,22.05
2022-11-05T06:20:47.678Z,23.10
2022-11-05T06:23:21.247Z,23.45
2022-11-05T06:25:54.755Z,23.75
2022-11-05T06:28:30.755Z,23.33
2022-11-05T06:31:04.677Z,22.40
2022-11-05T06:33:38.316Z,24.58
2022-11-05T06:36:16.275Z,23.05
2022-11-05T06:38:49.802Z,23.33
2022-11-05T06:41:23.364Z,21.48
2022-11-05T06:43:58.293Z,23.13
2022-11-05T06:46:31.898Z,22.98
2022-11-05T06:49:05.432Z,23.42
2022-11-05T06:51:38.965Z,23.50
2022-11-05T06:54:12.601Z,22.23
2022-11-05T06:56:46.109Z,22.38
2022-11-05T06:59:21.058Z,21.85
2022-11-05T07:01:54.647Z,22.73
2022-11-05T07:04:28.192Z,22.70
2022-11-05T07:07:02.011Z,22.58
2022-11-05T07:09:38.617Z,21.50
2022-11-05T07:12:12.282Z,22.52
2022-11-05T07:14:47.239Z,22.10
2022-11-05T07:17:20.751Z,21.90
2022-11-05T07:19:54.190Z,21.60
2022-11-05T07:22:27.731Z,21.67
2022-11-05T07:25:01.162Z,21.88
2022-11-05T07:27:39.492Z,21.27
2022-11-05T07:30:14.668Z,23.17
2022-11-05T07:32:48.094Z,23.00
2022-11-05T07:35:21.729Z,22.40
2022-11-05T07:37:56.492Z,22.88
2022-11-05T07:40:31.078Z,22.63
2022-11-05T07:43:04.582Z,22.23
2022-11-05T07:45:39.474Z,22.80
2022-11-05T07:48:12.917Z,23.90
2022-11-05T07:50:46.493Z,23.98
2022-11-05T07:53:20.801Z,23.63
2022-11-05T07:55:57.286Z,25.42
2022-11-05T07:58:30.705Z,23.23
2022-11-05T08:01:07.358Z,23.13
2022-11-05T08:03:40.991Z,23.30
2022-11-05T08:06:14.605Z,25.70
2022-11-05T08:08:48.211Z,25.83
2022-11-05T08:11:21.723Z,27.77
2022-11-05T08:13:55.290Z,29.50
2022-11-05T08:16:30.243Z,28.20
2022-11-05T08:19:04.853Z,26.05
2022-11-05T08:21:38.352Z,26.40
2022-11-05T08:24:12.121Z,25.88
2022-11-05T08:29:18.823Z,28.55
2022-11-05T08:31:53.725Z,25.88
2022-11-05T08:34:27.363Z,24.48
2022-11-05T08:37:02.166Z,24.10
2022-11-05T08:39:35.715Z,25.10
2022-11-05T08:42:09.188Z,25.92
2022-11-05T08:44:42.648Z,22.85
2022-11-05T08:47:17.589Z,23.70
2022-11-05T08:49:51.086Z,23.42
2022-11-05T08:52:24.558Z,25.40
2022-11-05T08:54:57.975Z,23.60
2022-11-05T08:57:31.403Z,23.60
2022-11-05T09:00:06.398Z,24.95
2022-11-05T09:02:42.146Z,24.05
2022-11-05T09:05:15.671Z,26.60
2022-11-05T09:10:22.589Z,24.92
2022-11-05T09:12:56.191Z,27.25
2022-11-05T09:15:29.770Z,26.90
2022-11-05T09:18:06.138Z,27.80
2022-11-05T09:20:40.225Z,27.10
2022-11-05T09:23:15.319Z,26.98
2022-11-05T09:25:49.017Z,27.02
2022-11-05T09:28:24.217Z,27.42
2022-11-05T09:30:57.696Z,26.63
2022-11-05T09:33:32.936Z,30.00
2022-11-05T09:36:07.487Z,30.38
2022-11-05T09:38:40.942Z,32.83
2022-11-05T09:41:19.924Z,30.63
2022-11-05T09:43:57.735Z,29.20
2022-11-05T09:46:40.597Z,30.85
2022-11-05T09:49:26.569Z,28.27
2022-11-05T09:52:01.357Z,30.52
2022-11-05T09:54:34.856Z,31.00
2022-11-05T09:57:14.490Z,33.50
2022-11-05T09:59:52.590Z,34.00
2022-11-05T10:02:30.620Z,34.83
2022-11-05T10:05:10.604Z,35.40
2022-11-05T10:07:46.767Z,32.42
2022-11-05T10:10:30.285Z,32.72
2022-11-05T10:13:09.095Z,33.25
2022-11-05T10:15:50.466Z,31.98
2022-11-05T10:18:30.090Z,31.77
2022-11-05T10:21:05.848Z,31.55
2022-11-05T10:23:42.519Z,33.15
2022-11-05T10:26:19.819Z,29.67
2022-11-05T10:28:53.691Z,31.15
2022-11-05T10:31:38.677Z,28.88
2022-11-05T10:34:13.901Z,29.35
2022-11-05T10:36:50.816Z,27.75
2022-11-05T10:39:27.881Z,28.10
2022-11-05T10:42:17.484Z,25.70
2022-11-05T10:44:58.039Z,28.08
2022-11-05T10:47:48.114Z,28.27
2022-11-05T10:50:25.591Z,30.02
2022-11-05T10:53:08.703Z,29.02
2022-11-05T10:55:45.586Z,30.65
2022-11-05T10:58:29.118Z,28.90
2022-11-05T11:01:11.493Z,25.80
2022-11-05T11:03:47.499Z,26.08
2022-11-05T11:06:25.121Z,26.25
2022-11-05T11:09:02.286Z,25.77
2022-11-05T11:11:37.704Z,25.90
2022-11-05T11:14:22.753Z,25.38
2022-11-05T11:17:18.305Z,26.02
2022-11-05T11:19:53.709Z,24.60
2022-11-05T11:22:28.826Z,25.23
2022-11-05T11:25:24.744Z,22.90
2022-11-05T11:28:04.409Z,24.13
2022-11-05T11:30:37.905Z,26.88
2022-11-05T11:33:13.995Z,27.42
2022-11-05T11:35:48.385Z,26.05
2022-11-05T11:38:24.651Z,25.80
2022-11-05T11:41:24.071Z,24.77
2022-11-05T11:44:00.839Z,22.55
2022-11-05T11:46:36.657Z,23.90
2022-11-05T11:49:32.624Z,24.17
2022-11-05T11:52:12.633Z,25.38
2022-11-05T11:54:46.212Z,24.63
2022-11-05T11:57:26.226Z,23.13
2022-11-05T12:00:09.665Z,63.67
2022-11-05T12:03:09.332Z,23.30
2022-11-05T12:05:48.824Z,23.98
2022-11-05T12:08:51.069Z,23.73
2022-11-05T12:11:37.542Z,26.58
2022-11-05T12:14:25.740Z,22.65
2022-11-05T12:17:13.080Z,24.05
2022-11-05T12:20:02.579Z,23.60
2022-11-05T12:23:07.859Z,23.95
2022-11-05T12:25:46.926Z,23.65
2022-11-05T12:29:16.763Z,24.63
2022-11-05T12:32:00.693Z,24.95
2022-11-05T12:34:57.881Z,24.85
2022-11-05T12:37:38.797Z,24.83
2022-11-05T12:40:30.753Z,23.90
2022-11-05T12:43:13.386Z,25.38
2022-11-05T12:45:52.621Z,26.10
2022-11-05T12:48:46.311Z,24.60
2022-11-05T12:51:31.606Z,23.40
2022-11-05T12:54:23.062Z,25.65
2022-11-05T12:57:00.123Z,39.92
2022-11-05T12:59:38.950Z,26.55
2022-11-05T13:02:22.533Z,26.35
2022-11-05T13:05:02.294Z,25.48
2022-11-05T13:07:40.788Z,25.55
2022-11-05T13:10:24.787Z,24.42
2022-11-05T13:13:05.519Z,26.35
2022-11-05T13:15:49.176Z,30.27
2022-11-05T13:18:31.172Z,25.52
2022-11-05T13:21:10.177Z,28.45
2022-11-05T13:23:48.093Z,24.70
2022-11-05T13:26:28.519Z,25.55
2022-11-05T13:29:08.263Z,25.30
2022-11-05T13:31:46.926Z,24.90
2022-11-05T13:34:33.443Z,24.63
2022-11-05T13:37:32.406Z,25.48
2022-11-05T13:40:11.217Z,24.10
2022-11-05T13:43:03.797Z,25.88
2022-11-05T13:46:05.385Z,25.98
2022-11-05T13:49:06.010Z,26.17
2022-11-05T13:51:50.931Z,27.27
2022-11-05T13:55:02.595Z,27.50
2022-11-05T13:57:59.047Z,25.95
2022-11-05T14:00:39.964Z,27.58
2022-11-05T14:03:19.963Z,26.45
2022-11-05T14:06:06.329Z,25.48
2022-11-05T14:08:47.452Z,25.50
2022-11-05T14:11:26.968Z,24.77
2022-11-05T14:14:04.265Z,24.70
2022-11-05T14:16:53.337Z,27.13
2022-11-05T14:19:34.572Z,27.30
2022-11-05T14:22:41.843Z,29.95
2022-11-05T14:25:57.933Z,29.95
2022-11-05T14:28:48.269Z,38.33
2022-11-05T14:32:07.210Z,48.15
2022-11-05T14:34:51.899Z,46.25
2022-11-05T14:37:28.804Z,39.67
2022-11-05T14:40:27.754Z,29.63
2022-11-05T14:43:04.510Z,27.63
2022-11-05T14:45:56.245Z,27.38
2022-11-05T14:48:38.012Z,28.17
2022-11-05T14:51:39.343Z,28.33
2022-11-05T14:54:23.346Z,26.45
2022-11-05T14:59:52.987Z,25.45
2022-11-05T15:03:15.195Z,26.17
2022-11-05T15:05:52.793Z,23.60
2022-11-05T15:08:37.959Z,25.65
2022-11-05T15:11:24.360Z,27.00
2022-11-05T15:14:16.351Z,27.85
2022-11-05T15:16:53.339Z,27.95
2022-11-05T15:19:34.267Z,30.02
2022-11-05T15:22:19.611Z,27.95
2022-11-05T15:24:57.001Z,28.23
2022-11-05T15:27:48.610Z,29.42
2022-11-05T15:30:24.584Z,24.33
2022-11-05T15:33:10.039Z,24.92
2022-11-05T15:35:45.428Z,22.13
2022-11-05T15:38:29.568Z,21.98
2022-11-05T15:41:08.472Z,20.73
2022-11-05T15:43:47.950Z,19.75
2022-11-05T15:46:28.317Z,18.45
2022-11-05T15:49:06.741Z,18.67
2022-11-05T15:51:41.688Z,20.23
2022-11-05T15:54:30.059Z,19.75
2022-11-05T15:57:08.568Z,19.48
2022-11-05T15:59:42.019Z,20.98
2022-11-05T16:02:29.110Z,20.50
2022-11-05T16:05:06.820Z,24.52
2022-11-05T16:07:45.245Z,23.73
2022-11-05T16:10:21.242Z,20.80
2022-11-05T16:12:55.064Z,20.83
2022-11-05T16:18:23.815Z,22.90
2022-11-05T16:21:09.310Z,19.83
2022-11-05T16:23:46.396Z,18.58
2022-11-05T16:29:34.403Z,17.63
2022-11-05T16:32:19.032Z,16.77
2022-11-05T16:34:55.205Z,16.70
2022-11-05T16:37:31.244Z,15.85
2022-11-05T16:40:14.664Z,16.95
2022-11-05T16:42:51.447Z,17.27
2022-11-05T16:45:26.201Z,15.43
2022-11-05T16:47:59.685Z,14.90
2022-11-05T16:50:33.866Z,14.88
2022-11-05T16:53:07.359Z,14.95
2022-11-05T16:55:44.119Z,14.23
2022-11-05T16:58:22.469Z,14.18
2022-11-05T17:01:00.708Z,14.85
2022-11-05T17:03:34.254Z,14.32
2022-11-05T17:06:08.642Z,15.38
2022-11-05T17:08:44.475Z,17.92
2022-11-05T17:11:22.118Z,19.83
2022-11-05T17:13:55.614Z,21.38
2022-11-05T17:16:29.601Z,21.92
2022-11-05T17:19:03.245Z,20.40
2022-11-05T17:21:36.864Z,23.70
2022-11-05T17:24:10.834Z,18.10
2022-11-05T17:26:45.790Z,17.88
2022-11-05T17:29:19.310Z,18.20
2022-11-05T17:31:52.865Z,18.13
2022-11-05T17:34:26.374Z,16.40
2022-11-05T17:36:59.929Z,55.75
2022-11-05T17:39:33.650Z,15.45
2022-11-05T17:44:41.993Z,17.45
2022-11-05T17:47:17.761Z,15.40
2022-11-05T17:49:51.294Z,16.40
2022-11-05T17:52:24.825Z,15.85
2022-11-05T17:54:58.502Z,14.25
2022-11-05T17:57:33.538Z,14.88
2022-11-05T18:00:08.766Z,16.25
2022-11-05T18:02:44.345Z,17.15
2022-11-05T18:05:18.553Z,18.45
2022-11-05T18:07:52.623Z,19.95
2022-11-05T18:10:26.406Z,20.98
2022-11-05T18:18:10.253Z,16.25
2022-11-05T18:20:44.460Z,19.55
2022-11-05T18:23:18.098Z,19.00
2022-11-05T18:28:26.721Z,16.48
2022-11-05T18:31:00.353Z,17.02
2022-11-05T18:33:33.987Z,16.98
2022-11-05T18:36:08.163Z,18.25
2022-11-05T18:38:41.669Z,16.27
2022-11-05T18:41:22.016Z,17.90
2022-11-05T18:44:00.881Z,16.67
2022-11-05T18:49:42.439Z,41.80
2022-11-05T18:52:18.373Z,18.20
2022-11-05T18:54:55.061Z,15.18
2022-11-05T18:57:40.552Z,14.10
2022-11-05T19:00:20.399Z,13.45
2022-11-05T19:02:54.390Z,13.55
2022-11-05T19:05:29.723Z,12.88
2022-11-05T19:08:09.667Z,14.40
2022-11-05T19:10:45.285Z,21.10
2022-11-05T19:13:18.904Z,14.10
2022-11-05T19:15:55.857Z,13.88
2022-11-05T19:18:31.957Z,14.15
2022-11-05T19:21:11.991Z,13.63
2022-11-05T19:23:45.892Z,13.38
2022-11-05T19:26:27.188Z,14.55
2022-11-05T19:29:03.851Z,14.32
2022-11-05T19:31:49.362Z,19.70
2022-11-05T19:34:22.953Z,14.18
2022-11-05T19:37:05.370Z,20.10
2022-11-05T19:39:44.272Z,13.90
2022-11-05T19:42:18.859Z,15.38
2022-11-05T19:44:52.380Z,14.25
2022-11-05T19:47:29.535Z,15.00
2022-11-05T19:50:05.308Z,15.65
2022-11-05T19:52:41.712Z,16.85
2022-11-05T19:55:16.706Z,15.10
2022-11-05T19:57:52.733Z,17.13
2022-11-05T20:00:26.313Z,14.93
2022-11-05T20:03:07.079Z,15.63
2022-11-05T20:05:42.348Z,16.35
2022-11-05T20:08:17.293Z,16.35
2022-11-05T20:10:57.397Z,16.77
2022-11-05T20:13:33.194Z,16.52
2022-11-05T20:16:20.742Z,15.93
2022-11-05T20:19:05.280Z,15.60
2022-11-05T20:21:44.583Z,14.50
2022-11-05T20:24:24.694Z,13.82
2022-11-05T20:26:59.269Z,14.07
2022-11-05T20:29:37.168Z,13.80
2022-11-05T20:32:14.351Z,14.15
2022-11-05T20:34:49.383Z,14.48
2022-11-05T20:37:26.182Z,13.55
2022-11-05T20:40:02.062Z,13.70
2022-11-05T20:42:37.374Z,14.50
2022-11-05T20:45:11.979Z,14.65
2022-11-05T20:47:45.563Z,29.88
2022-11-05T20:50:22.488Z,14.60
2022-11-05T20:52:58.527Z,14.65
2022-11-05T20:58:05.544Z,14.30
2022-11-05T21:00:41.320Z,14.25
2022-11-05T21:03:15.100Z,13.88
2022-11-05T21:08:25.368Z,13.57
2022-11-05T21:11:02.646Z,14.98
2022-11-05T21:13:36.837Z,13.80
2022-11-05T21:16:18.919Z,14.45
2022-11-05T21:18:52.538Z,14.60
2022-11-05T21:21:30.329Z,13.80
2022-11-05T21:24:03.945Z,12.38
2022-11-05T21:26:39.764Z,14.50
2022-11-05T21:29:17.677Z,13.57
2022-11-05T21:31:51.937Z,14.15
2022-11-05T21:34:30.333Z,13.70
2022-11-05T21:37:06.391Z,13.35
2022-11-05T21:39:40.047Z,14.55
2022-11-05T21:42:13.812Z,13.32
2022-11-05T21:47:23.758Z,13.95
2022-11-05T21:52:52.264Z,12.75
2022-11-05T21:55:42.995Z,20.05
2022-11-05T21:58:38.889Z,16.90
2022-11-05T22:01:12.844Z,15.55
2022-11-05T22:03:49.124Z,14.63
2022-11-05T22:06:24.496Z,14.25
2022-11-05T22:09:01.819Z,14.77
2022-11-05T22:11:40.382Z,14.52
2022-11-05T22:14:16.226Z,14.52
2022-11-05T22:16:49.903Z,15.50
2022-11-05T22:19:26.917Z,15.25
2022-11-05T22:22:14.646Z,15.68
2022-11-05T22:24:51.017Z,15.63
2022-11-05T22:27:27.136Z,16.75
2022-11-05T22:30:03.734Z,18.17
2022-11-05T22:32:38.508Z,15.60
2022-11-05T22:35:12.269Z,16.20
2022-11-05T22:40:23.985Z,14.73
2022-11-05T22:42:58.021Z,16.80
2022-11-05T22:48:07.540Z,15.07
2022-11-05T22:50:41.732Z,16.73
2022-11-05T22:53:15.277Z,14.75
2022-11-05T22:55:52.946Z,17.75
2022-11-05T22:58:26.466Z,16.38
2022-11-05T23:01:04.048Z,15.57
2022-11-05T23:03:37.743Z,15.88
2022-11-05T23:06:32.895Z,16.23
2022-11-05T23:09:26.164Z,17.65
2022-11-05T23:12:03.226Z,15.15
2022-11-05T23:14:37.437Z,15.20
2022-11-05T23:17:28.629Z,15.32
2022-11-05T23:20:25.093Z,14.65
2022-11-05T23:23:16.289Z,13.70
2022-11-05T23:25:50.251Z,14.55
2022-11-05T23:28:25.338Z,15.57
2022-11-05T23:31:15.947Z,14.73
2022-11-05T23:33:49.429Z,14.18
2022-11-05T23:36:40.274Z,15.43
2022-11-05T23:39:14.885Z,25.58
2022-11-05T23:42:05.468Z,15.45
2022-11-05T23:45:00.306Z,15.55
2022-11-05T23:47:50.968Z,15.00
2022-11-05T23:50:25.038Z,14.77
2022-11-05T23:53:00.873Z,14.13
2022-11-05T23:55:34.300Z,15.63
2022-11-05T23:58:18.492Z,16.67
